Time;durP1;ratioP1;P1;durP2;ratioP2;P2;SDS_P1;SDS_P2;PMS_P1;PMS_P2;Temp;Humidity;BMP_temperature;BMP_pressure;BME280_temperature;BME280_humidity;BME280_pressure;Samples;Min_cycle;Max_cycle;Signal;HPM_P1;HPM_P2
2023/01/28 00:00:08;;;;;;;11.85;7.07;;;3.10;99.90;;;;;;5079220;28;20072;-56
2023/01/28 00:02:37;;;;;;;9.50;7.25;;;3.00;99.90;;;;;;5079339;28;20049;-57
2023/01/28 00:05:03;;;;;;;10.52;7.05;;;3.00;99.90;;;;;;5079346;28;20041;-57
2023/01/28 00:07:29;;;;;;;9.02;6.75;;;3.00;99.90;;;;;;5079254;28;20434;-57
2023/01/28 00:09:54;;;;;;;9.75;6.32;;;3.00;99.90;;;;;;5079346;28;20104;-57
2023/01/28 00:12:20;;;;;;;10.20;6.78;;;3.00;99.90;;;;;;5078966;28;20044;-56
2023/01/28 00:14:46;;;;;;;8.75;6.38;;;2.90;99.90;;;;;;5079459;28;20080;-56
2023/01/28 00:17:13;;;;;;;8.90;6.40;;;2.90;99.90;;;;;;5078756;28;20512;-57
2023/01/28 00:19:39;;;;;;;8.48;6.38;;;3.00;99.90;;;;;;5078629;28;20052;-57
2023/01/28 00:22:04;;;;;;;11.25;4.75;;;2.90;99.90;;;;;;5078861;28;20036;-56
2023/01/28 00:24:30;;;;;;;7.60;4.95;;;2.90;99.90;;;;;;5078588;28;20056;-57
2023/01/28 00:26:56;;;;;;;8.23;6.05;;;3.00;99.90;;;;;;5079322;28;20504;-57
2023/01/28 00:29:21;;;;;;;8.20;5.28;;;2.90;99.90;;;;;;5078890;28;20045;-57
2023/01/28 00:31:47;;;;;;;9.10;5.72;;;3.00;99.90;;;;;;5079390;28;20060;-57
2023/01/28 00:34:13;;;;;;;7.80;5.35;;;2.90;99.90;;;;;;5084056;28;20044;-56
2023/01/28 00:36:38;;;;;;;7.75;5.15;;;2.90;99.90;;;;;;5078901;28;20050;-56
2023/01/28 00:39:05;;;;;;;7.90;5.25;;;2.90;99.90;;;;;;5078711;28;20068;-57
2023/01/28 00:41:31;;;;;;;8.63;5.15;;;2.90;99.90;;;;;;5078712;28;20044;-56
2023/01/28 00:43:56;;;;;;;8.27;5.68;;;2.90;99.90;;;;;;5079265;28;20080;-57
2023/01/28 00:46:25;;;;;;;8.40;5.00;;;2.80;99.90;;;;;;5078664;28;20040;-56
2023/01/28 00:48:51;;;;;;;9.07;4.82;;;2.80;99.90;;;;;;5081627;28;20076;-56
2023/01/28 00:51:19;;;;;;;7.78;5.25;;;2.80;99.90;;;;;;5078698;28;20048;-56
2023/01/28 00:53:45;;;;;;;9.15;4.55;;;2.80;99.90;;;;;;5086265;28;20040;-56
2023/01/28 00:56:16;;;;;;;9.45;5.28;;;2.90;99.90;;;;;;5081122;28;20090;-57
2023/01/28 00:58:42;;;;;;;7.70;4.93;;;2.80;99.90;;;;;;5081214;28;20516;-57
2023/01/28 01:01:16;;;;;;;7.50;5.00;;;2.80;99.90;;;;;;5078792;28;20040;-56
2023/01/28 01:03:42;;;;;;;8.10;5.55;;;2.90;99.90;;;;;;5078538;28;20044;-55
2023/01/28 01:06:10;;;;;;;8.27;5.03;;;2.80;99.90;;;;;;5060235;28;20049;-56
2023/01/28 01:08:38;;;;;;;7.30;4.82;;;2.90;99.90;;;;;;5078099;28;20361;-57
2023/01/28 01:11:06;;;;;;;7.65;4.60;;;2.80;99.90;;;;;;5078291;28;20045;-56
2023/01/28 01:13:33;;;;;;;8.05;5.03;;;2.90;99.90;;;;;;5090337;28;20035;-56
2023/01/28 01:16:09;;;;;;;9.02;5.47;;;2.90;99.90;;;;;;5098597;28;20100;-57
2023/01/28 01:18:35;;;;;;;7.75;5.15;;;2.80;99.90;;;;;;5098752;28;20051;-57
2023/01/28 01:21:02;;;;;;;8.82;5.50;;;3.50;99.90;;;;;;5098640;28;20044;-56
2023/01/28 01:23:29;;;;;;;7.15;4.70;;;2.70;99.90;;;;;;5098542;28;20541;-59
2023/01/28 01:25:55;;;;;;;9.82;5.28;;;2.70;99.90;;;;;;5098444;28;20086;-57
2023/01/28 01:28:21;;;;;;;8.32;5.38;;;2.80;99.90;;;;;;5098472;28;20036;-57
2023/01/28 01:30:48;;;;;;;8.27;5.03;;;2.90;99.90;;;;;;5098631;28;20040;-57
2023/01/28 01:33:14;;;;;;;8.48;5.30;;;2.80;99.90;;;;;;5100964;28;20047;-57
2023/01/28 01:35:40;;;;;;;8.05;5.10;;;2.70;99.90;;;;;;5092158;28;20051;-56
2023/01/28 01:38:06;;;;;;;8.63;5.18;;;2.80;99.90;;;;;;5082065;28;20048;-57
2023/01/28 01:40:32;;;;;;;7.22;4.63;;;2.80;99.90;;;;;;5064020;28;20083;-57
2023/01/28 01:42:57;;;;;;;8.18;5.25;;;2.60;99.90;;;;;;5081603;28;20047;-57
2023/01/28 01:45:24;;;;;;;9.00;5.57;;;2.70;99.90;;;;;;5081828;28;20093;-56
2023/01/28 01:48:01;;;;;;;7.18;4.93;;;2.80;99.90;;;;;;5081564;28;20037;-56
2023/01/28 01:50:32;;;;;;;8.00;5.32;;;2.90;99.90;;;;;;5063739;28;20044;-57
2023/01/28 01:53:19;;;;;;;7.32;4.93;;;2.80;99.90;;;;;;5083416;28;20127;-57
2023/01/28 01:55:48;;;;;;;10.02;5.35;;;2.90;99.90;;;;;;5101745;28;20040;-56
2023/01/28 01:58:17;;;;;;;8.32;5.80;;;2.80;99.90;;;;;;5101624;28;20043;-57
2023/01/28 02:00:43;;;;;;;8.00;4.97;;;2.80;99.90;;;;;;5102011;28;20118;-57
2023/01/28 02:03:10;;;;;;;8.30;5.30;;;2.80;99.90;;;;;;5101821;28;20036;-57
2023/01/28 02:05:37;;;;;;;8.93;5.10;;;2.90;99.90;;;;;;5102379;28;20074;-54
2023/01/28 02:08:22;;;;;;;10.05;5.40;;;2.70;99.90;;;;;;5101805;28;20044;-57
2023/01/28 02:10:49;;;;;;;8.43;5.22;;;2.80;99.90;;;;;;5101500;28;20048;-57
2023/01/28 02:13:17;;;;;;;9.85;6.32;;;2.80;99.90;;;;;;5101501;28;20131;-56
2023/01/28 02:15:44;;;;;;;8.45;5.68;;;2.70;99.90;;;;;;5101572;28;20054;-57
2023/01/28 02:18:10;;;;;;;8.98;6.00;;;2.70;99.90;;;;;;5101791;28;20083;-57
2023/01/28 02:21:03;;;;;;;11.95;6.05;;;2.70;99.90;;;;;;5101603;28;20048;-56
2023/01/28 02:23:48;;;;;;;;;;;2.80;99.90;;;;;;5101838;28;20061;-57
2023/01/28 02:26:35;;;;;;;8.55;5.78;;;2.70;99.90;;;;;;5101508;28;20325;-57
2023/01/28 02:29:23;;;;;;;9.38;6.43;;;2.70;99.90;;;;;;5083097;28;20423;-57
2023/01/28 02:32:02;;;;;;;8.52;5.88;;;2.70;99.90;;;;;;5101711;28;20082;-57
2023/01/28 02:35:10;;;;;;;14.38;6.15;;;2.70;99.90;;;;;;5082968;28;20059;-57
2023/01/28 02:37:41;;;;;;;8.55;5.72;;;2.70;99.90;;;;;;5070946;28;20060;-56
2023/01/28 02:40:15;;;;;;;10.93;5.82;;;2.60;99.90;;;;;;5101498;28;20040;-55
2023/01/28 02:42:41;;;;;;;8.98;5.72;;;2.70;99.90;;;;;;5100727;28;20135;-57
2023/01/28 02:48:18;;;;;;;8.88;6.10;;;2.60;99.90;;;;;;5100887;28;20059;-57
2023/01/28 02:51:16;;;;;;;9.30;5.65;;;2.70;99.90;;;;;;5100986;28;20047;-56
2023/01/28 02:53:55;;;;;;;9.65;5.82;;;2.60;99.90;;;;;;5093167;28;20064;-57
2023/01/28 02:56:40;;;;;;;10.70;6.13;;;2.70;99.90;;;;;;5080811;28;20037;-56
2023/01/28 02:59:32;;;;;;;9.90;6.40;;;2.60;99.90;;;;;;5080424;28;20119;-56
2023/01/28 03:02:29;;;;;;;10.07;5.82;;;2.60;99.90;;;;;;5080597;28;20656;-57
2023/01/28 03:05:06;;;;;;;10.05;6.15;;;2.60;99.90;;;;;;5062323;28;20084;-56
2023/01/28 03:07:35;;;;;;;12.13;6.70;;;2.70;99.90;;;;;;5080508;28;20052;-57
2023/01/28 03:10:04;;;;;;;12.43;6.68;;;2.70;99.90;;;;;;5080807;28;20048;-57
2023/01/28 03:38:22;;;;;;;9.73;6.55;;;2.30;99.90;;;;;;5079505;28;20050;-57
2023/01/28 03:40:54;;;;;;;9.80;6.20;;;2.20;99.90;;;;;;5061450;28;20370;-57
2023/01/28 03:43:20;;;;;;;10.18;6.80;;;2.40;99.90;;;;;;5079800;28;20082;-57
2023/01/28 03:45:50;;;;;;;9.65;6.60;;;2.30;99.90;;;;;;5061696;28;20033;-56
2023/01/28 03:48:19;;;;;;;11.45;6.95;;;2.50;99.90;;;;;;5079981;28;20040;-57
2023/01/28 03:50:46;;;;;;;10.20;6.82;;;2.40;99.90;;;;;;5079367;28;20044;-56
2023/01/28 03:53:14;;;;;;;11.77;7.35;;;2.40;99.90;;;;;;5080916;28;20111;-56
2023/01/28 03:55:43;;;;;;;8.98;6.80;;;2.40;99.90;;;;;;5095708;28;20032;-56
2023/01/28 03:58:09;;;;;;;10.02;6.82;;;2.20;99.90;;;;;;5081510;28;20048;-57
2023/01/28 04:00:36;;;;;;;10.88;6.82;;;2.20;99.90;;;;;;5099725;28;20059;-57
2023/01/28 04:03:14;;;;;;;10.73;7.28;;;2.30;99.90;;;;;;5099669;28;20044;-57
2023/01/28 04:05:44;;;;;;;9.30;6.60;;;2.30;99.90;;;;;;5099984;28;20071;-57
2023/01/28 04:08:10;;;;;;;9.90;7.05;;;2.30;99.90;;;;;;5099546;28;20055;-55
2023/01/28 04:10:38;;;;;;;10.32;7.05;;;2.40;99.90;;;;;;5081124;28;20036;-55
2023/01/28 04:13:04;;;;;;;9.77;6.50;;;2.40;99.90;;;;;;5099232;28;20067;-56
2023/01/28 04:15:30;;;;;;;10.48;6.88;;;2.40;99.90;;;;;;5099142;28;20055;-57
2023/01/28 04:17:56;;;;;;;10.68;7.35;;;2.40;99.90;;;;;;5099053;28;20040;-56
2023/01/28 04:20:21;;;;;;;10.43;6.78;;;2.40;99.90;;;;;;5099143;28;20036;-56
2023/01/28 04:22:47;;;;;;;9.23;6.60;;;2.30;99.90;;;;;;5099959;28;20032;-57
2023/01/28 04:25:13;;;;;;;9.75;6.68;;;2.50;99.90;;;;;;5098813;28;20097;-56
2023/01/28 04:27:39;;;;;;;11.90;6.97;;;2.50;99.90;;;;;;5091156;28;20072;-57
2023/01/28 04:30:05;;;;;;;10.90;7.10;;;2.50;99.90;;;;;;5078885;28;20055;-57
2023/01/28 04:32:31;;;;;;;10.23;6.53;;;2.30;99.90;;;;;;5078610;28;20040;-57
2023/01/28 04:34:56;;;;;;;11.25;6.88;;;2.30;99.90;;;;;;5078982;28;20079;-56
2023/01/28 04:37:22;;;;;;;10.48;6.85;;;2.30;99.90;;;;;;5078912;28;20036;-57
2023/01/28 04:39:48;;;;;;;10.88;6.97;;;2.30;99.90;;;;;;5079184;28;20066;-56
2023/01/28 04:42:13;;;;;;;9.52;6.78;;;2.30;99.90;;;;;;5078660;28;20045;-56
2023/01/28 04:44:39;;;;;;;11.25;6.45;;;2.30;99.90;;;;;;5078919;28;20053;-56
2023/01/28 04:47:05;;;;;;;10.57;7.20;;;2.20;99.90;;;;;;5078315;28;20174;-56
2023/01/28 04:49:31;;;;;;;11.52;6.60;;;2.30;99.90;;;;;;5078706;28;20075;-57
2023/01/28 04:51:57;;;;;;;9.95;7.07;;;2.30;99.90;;;;;;5078856;28;20041;-57
2023/01/28 04:54:22;;;;;;;11.70;7.32;;;2.30;99.90;;;;;;5073589;28;20048;-57
2023/01/28 04:56:48;;;;;;;11.32;7.22;;;2.20;99.90;;;;;;5099256;28;20123;-57
2023/01/28 04:59:14;;;;;;;10.80;6.82;;;2.10;99.90;;;;;;5098828;28;20528;-56
2023/01/28 05:01:40;;;;;;;12.10;7.85;;;2.20;99.90;;;;;;5098913;28;20067;-56
2023/01/28 05:04:05;;;;;;;11.07;7.32;;;2.20;99.90;;;;;;5098918;28;20067;-56
2023/01/28 05:06:32;;;;;;;11.23;7.45;;;2.10;99.90;;;;;;5098778;28;20048;-56
2023/01/28 05:08:58;;;;;;;10.35;7.15;;;2.10;99.90;;;;;;5102882;28;20047;-57
2023/01/28 05:11:24;;;;;;;10.93;7.07;;;2.20;99.90;;;;;;5084537;28;20099;-56
2023/01/28 05:13:50;;;;;;;10.65;7.05;;;2.30;99.90;;;;;;5102406;28;20567;-56
2023/01/28 05:16:16;;;;;;;10.63;6.57;;;2.30;99.90;;;;;;5102641;28;20075;-57
2023/01/28 05:18:42;;;;;;;11.93;6.78;;;2.30;99.90;;;;;;5103005;28;20044;-56
2023/01/28 05:21:08;;;;;;;10.13;6.50;;;2.10;99.90;;;;;;5102513;28;20114;-57
2023/01/28 05:23:34;;;;;;;11.82;6.93;;;2.30;99.90;;;;;;5102462;28;20070;-56
2023/01/28 05:25:59;;;;;;;9.73;5.97;;;2.20;99.90;;;;;;5102442;28;20048;-55
2023/01/28 05:28:25;;;;;;;10.02;6.25;;;2.20;99.90;;;;;;5102626;28;20048;-56
2023/01/28 05:30:51;;;;;;;8.98;5.80;;;2.20;99.90;;;;;;5102656;28;20047;-56
2023/01/28 05:33:16;;;;;;;10.52;6.47;;;2.20;99.90;;;;;;5101958;28;20040;-56
2023/01/28 05:35:42;;;;;;;9.90;6.25;;;2.20;99.90;;;;;;5082493;28;20041;-56
2023/01/28 05:38:08;;;;;;;9.38;5.75;;;2.10;99.90;;;;;;5082279;28;20096;-56
2023/01/28 05:40:34;;;;;;;9.15;6.05;;;2.00;99.90;;;;;;5081933;28;20059;-56
2023/01/28 05:42:59;;;;;;;9.90;6.05;;;2.10;99.90;;;;;;5087174;28;20392;-57
2023/01/28 05:45:25;;;;;;;8.95;5.93;;;1.90;99.90;;;;;;5081665;28;20041;-57
2023/01/28 05:47:51;;;;;;;11.02;6.43;;;2.10;99.90;;;;;;5082021;28;20032;-56
2023/01/28 05:50:17;;;;;;;9.52;5.20;;;2.00;99.90;;;;;;5081766;28;20040;-56
2023/01/28 05:52:43;;;;;;;8.38;5.72;;;2.00;99.90;;;;;;5082627;28;20033;-57
2023/01/28 05:55:09;;;;;;;9.27;5.28;;;2.00;99.90;;;;;;5101362;28;20048;-55
2023/01/28 05:57:35;;;;;;;9.95;6.15;;;2.10;99.90;;;;;;5102242;28;20040;-57
2023/01/28 06:00:01;;;;;;;11.27;5.57;;;2.10;99.90;;;;;;5101664;28;20170;-56
2023/01/28 06:02:26;;;;;;;9.20;5.95;;;2.10;99.90;;;;;;5101759;28;20040;-57
2023/01/28 06:04:52;;;;;;;9.98;5.68;;;2.10;99.90;;;;;;5101967;28;20067;-56
2023/01/28 06:07:19;;;;;;;8.40;5.32;;;2.00;99.90;;;;;;5101825;28;20048;-56
2023/01/28 06:09:46;;;;;;;8.75;5.53;;;2.20;99.90;;;;;;5102345;28;20545;-57
2023/01/28 06:12:12;;;;;;;10.57;5.68;;;2.10;99.90;;;;;;5101637;28;20036;-56
2023/01/28 06:14:38;;;;;;;9.50;5.35;;;2.00;99.90;;;;;;5101915;28;20127;-56
2023/01/28 06:17:04;;;;;;;9.35;5.88;;;2.10;99.90;;;;;;5101255;28;20044;-56
2023/01/28 06:19:29;;;;;;;8.68;5.22;;;2.20;99.90;;;;;;5100828;28;20071;-57
2023/01/28 06:21:55;;;;;;;10.20;5.68;;;2.00;99.90;;;;;;5101495;28;20504;-57
2023/01/28 06:24:21;;;;;;;9.20;5.78;;;2.00;99.90;;;;;;5082985;28;20490;-57
2023/01/28 06:26:47;;;;;;;8.80;5.28;;;2.00;99.90;;;;;;5101987;28;20051;-57
2023/01/28 06:29:13;;;;;;;9.00;5.22;;;2.00;99.90;;;;;;5082929;28;20051;-56
2023/01/28 06:31:39;;;;;;;10.10;5.78;;;2.00;99.90;;;;;;5101812;28;20032;-57
2023/01/28 06:34:05;;;;;;;9.43;5.50;;;2.10;99.90;;;;;;5101345;28;20044;-57
2023/01/28 06:36:31;;;;;;;8.63;5.28;;;2.10;99.90;;;;;;5101082;28;20032;-56
2023/01/28 06:38:57;;;;;;;10.25;5.82;;;2.10;99.90;;;;;;5082820;28;20048;-56
2023/01/28 06:41:23;;;;;;;10.68;5.38;;;2.10;99.90;;;;;;5100793;28;20124;-56
2023/01/28 06:43:48;;;;;;;8.52;5.20;;;2.00;99.90;;;;;;5101496;28;20060;-56
2023/01/28 06:46:14;;;;;;;8.98;5.57;;;2.10;99.90;;;;;;5081425;28;20050;-56
2023/01/28 06:48:40;;;;;;;9.85;5.80;;;2.00;99.90;;;;;;5080836;28;20044;-56
2023/01/28 06:51:05;;;;;;;9.13;5.45;;;2.10;99.90;;;;;;5080913;28;20040;-56
2023/01/28 06:53:31;;;;;;;10.63;5.53;;;2.00;99.90;;;;;;5086829;28;20498;-56
2023/01/28 06:55:57;;;;;;;9.68;5.28;;;1.90;99.90;;;;;;5096989;28;20634;-56
2023/01/28 06:58:22;;;;;;;8.98;5.07;;;1.80;99.90;;;;;;5097376;28;20837;-57
2023/01/28 07:00:48;;;;;;;8.50;5.07;;;2.00;99.90;;;;;;5097705;28;20060;-57
2023/01/28 07:03:14;;;;;;;9.13;5.20;;;1.90;99.90;;;;;;5097169;28;20040;-56
2023/01/28 07:05:39;;;;;;;11.40;5.60;;;1.80;99.90;;;;;;5087212;28;20044;-56
2023/01/28 07:08:05;;;;;;;9.15;5.20;;;1.90;99.90;;;;;;5085765;28;20059;-56
2023/01/28 07:10:31;;;;;;;8.73;5.35;;;1.80;99.90;;;;;;5097161;28;20036;-56
2023/01/28 07:12:57;;;;;;;10.38;5.57;;;1.70;99.90;;;;;;5096944;28;20144;-55
2023/01/28 07:15:22;;;;;;;9.68;5.95;;;1.70;99.90;;;;;;5093986;28;20046;-56
2023/01/28 07:17:48;;;;;;;9.20;6.03;;;1.70;99.90;;;;;;5090529;28;20082;-57
2023/01/28 07:20:14;;;;;;;8.48;5.32;;;1.60;99.90;;;;;;5078544;28;20052;-56
2023/01/28 07:22:41;;;;;;;9.45;5.85;;;1.50;99.90;;;;;;5097595;28;20044;-56
2023/01/28 07:25:08;;;;;;;9.40;5.68;;;1.40;99.90;;;;;;5093218;28;20063;-56
2023/01/28 07:27:33;;;;;;;15.73;6.03;;;1.40;99.90;;;;;;5076587;28;20057;-56
2023/01/28 07:29:59;;;;;;;10.52;5.78;;;1.40;99.90;;;;;;5075670;28;20041;-56
2023/01/28 07:32:28;;;;;;;10.43;6.30;;;1.40;99.90;;;;;;5076535;28;20101;-57
2023/01/28 07:34:54;;;;;;;10.07;6.03;;;1.40;99.90;;;;;;5076456;28;20056;-56
2023/01/28 07:37:20;;;;;;;11.27;5.70;;;1.40;99.90;;;;;;5075972;28;20084;-56
2023/01/28 07:39:46;;;;;;;9.98;5.90;;;1.30;99.90;;;;;;5076633;28;20100;-56
2023/01/28 07:42:12;;;;;;;11.27;6.50;;;1.30;99.90;;;;;;5076084;28;20076;-56
2023/01/28 07:44:38;;;;;;;9.07;6.13;;;1.30;99.90;;;;;;5076671;28;20041;-56
2023/01/28 07:47:05;;;;;;;10.38;5.82;;;1.30;99.90;;;;;;5076279;28;20047;-56
2023/01/28 07:49:33;;;;;;;10.40;6.15;;;1.40;99.90;;;;;;5076018;28;20072;-56
2023/01/28 07:51:59;;;;;;;10.65;6.55;;;1.20;99.90;;;;;;5076412;28;20045;-55
2023/01/28 07:54:25;;;;;;;9.80;5.88;;;1.40;99.90;;;;;;5089062;28;20067;-56
2023/01/28 07:56:50;;;;;;;11.35;6.10;;;1.40;99.90;;;;;;5097004;28;20048;-56
2023/01/28 07:59:16;;;;;;;10.25;6.03;;;1.30;99.90;;;;;;5096240;28;20047;-56
2023/01/28 08:01:42;;;;;;;11.27;6.38;;;1.40;99.90;;;;;;5078643;28;20044;-56
2023/01/28 08:04:08;;;;;;;10.10;5.78;;;1.30;99.90;;;;;;5077895;28;20052;-56
2023/01/28 08:06:36;;;;;;;14.27;6.65;;;1.40;99.90;;;;;;5095956;28;20048;-57
2023/01/28 08:09:07;;;;;;;9.93;6.03;;;1.40;99.90;;;;;;5096010;28;20048;-56
2023/01/28 08:11:34;;;;;;;9.75;6.07;;;1.50;99.90;;;;;;5077805;28;20048;-57
2023/01/28 08:14:00;;;;;;;9.43;6.43;;;1.40;99.90;;;;;;5096562;28;20044;-57
2023/01/28 08:16:27;;;;;;;9.88;6.55;;;1.50;99.90;;;;;;5096054;28;20143;-57
2023/01/28 08:18:53;;;;;;;14.20;7.13;;;1.50;99.90;;;;;;5095608;28;20699;-57
2023/01/28 08:21:18;;;;;;;13.50;7.25;;;1.40;99.90;;;;;;5096235;28;20044;-57
2023/01/28 08:23:44;;;;;;;14.05;7.57;;;1.50;99.90;;;;;;5092460;28;20210;-56
2023/01/28 08:26:10;;;;;;;11.85;8.02;;;1.30;99.90;;;;;;5075709;28;20728;-57
2023/01/28 08:28:35;;;;;;;10.10;6.15;;;1.30;99.90;;;;;;5075317;28;20594;-56
2023/01/28 08:31:01;;;;;;;10.05;5.85;;;1.40;99.90;;;;;;5075428;28;20091;-56
2023/01/28 08:33:27;;;;;;;9.85;5.63;;;1.20;99.90;;;;;;5074635;28;20059;-56
2023/01/28 08:35:53;;;;;;;9.77;5.45;;;1.40;99.90;;;;;;5075971;28;20032;-56
2023/01/28 08:38:19;;;;;;;11.68;6.03;;;1.60;99.90;;;;;;5075053;28;20071;-56
2023/01/28 08:40:45;;;;;;;10.73;5.97;;;1.60;99.90;;;;;;5075021;28;20045;-56
2023/01/28 08:43:11;;;;;;;11.80;6.07;;;1.30;99.90;;;;;;5055491;28;20059;-56
2023/01/28 08:45:39;;;;;;;10.15;5.90;;;1.50;99.90;;;;;;5039472;28;20044;-56
2023/01/28 08:48:06;;;;;;;10.85;6.60;;;1.50;99.90;;;;;;5075186;28;20048;-56
2023/01/28 08:50:38;;;;;;;10.35;5.57;;;1.60;99.90;;;;;;5074715;28;20124;-55
2023/01/28 08:53:07;;;;;;;10.82;6.40;;;1.70;99.90;;;;;;5077521;28;20070;-56
2023/01/28 08:55:33;;;;;;;10.73;6.55;;;1.80;99.90;;;;;;5094570;28;20051;-56
2023/01/28 08:58:04;;;;;;;9.93;5.85;;;1.70;99.90;;;;;;5093160;28;20084;-56
2023/01/28 09:00:30;;;;;;;10.40;5.93;;;1.70;99.90;;;;;;5075393;28;20083;-56
2023/01/28 09:02:56;;;;;;;11.38;6.00;;;1.80;99.90;;;;;;5074986;28;20048;-56
2023/01/28 09:05:22;;;;;;;10.50;6.72;;;1.70;99.90;;;;;;5075574;28;20139;-56
2023/01/28 09:07:48;;;;;;;10.70;6.10;;;1.80;99.90;;;;;;5074819;28;20242;-53
2023/01/28 09:10:15;;;;;;;11.43;5.85;;;1.80;99.90;;;;;;5075479;28;20420;-56
2023/01/28 09:12:41;;;;;;;10.65;6.22;;;1.90;99.90;;;;;;5074952;28;20537;-56
2023/01/28 09:15:08;;;;;;;12.00;6.78;;;1.80;99.90;;;;;;5077246;28;20041;-56
2023/01/28 09:17:34;;;;;;;10.23;6.28;;;2.00;99.90;;;;;;5077649;28;20119;-57
2023/01/28 09:19:59;;;;;;;11.18;6.68;;;2.00;99.90;;;;;;5077792;28;20052;-57
2023/01/28 09:22:25;;;;;;;11.52;6.65;;;2.20;99.90;;;;;;5085537;28;20062;-56
2023/01/28 09:24:50;;;;;;;10.45;6.15;;;2.30;99.90;;;;;;5084806;28;20132;-56
2023/01/28 09:27:16;;;;;;;10.15;6.32;;;2.30;99.90;;;;;;5078752;28;20047;-57
2023/01/28 09:29:42;;;;;;;11.10;6.50;;;2.50;99.90;;;;;;5078306;28;20052;-56
2023/01/28 09:32:08;;;;;;;11.57;6.93;;;2.70;99.90;;;;;;5078381;28;20076;-56
2023/01/28 09:34:33;;;;;;;10.48;6.60;;;2.50;99.90;;;;;;5077997;28;20079;-56
2023/01/28 09:36:59;;;;;;;10.85;6.65;;;2.60;99.90;;;;;;5078282;28;20037;-56
2023/01/28 09:39:27;;;;;;;11.27;6.75;;;2.70;99.90;;;;;;5078588;28;20041;-56
2023/01/28 09:42:26;;;;;;;11.32;6.65;;;2.80;99.90;;;;;;5066571;28;20091;-56
2023/01/28 09:44:55;;;;;;;11.65;7.30;;;2.80;99.90;;;;;;5057748;28;20076;-54
2023/01/28 09:47:36;;;;;;;14.63;7.28;;;2.70;99.90;;;;;;5057869;28;20041;-57
2023/01/28 09:50:07;;;;;;;11.73;7.00;;;2.90;99.90;;;;;;5057945;28;20099;-56
2023/01/28 09:52:39;;;;;;;11.15;6.80;;;2.80;99.90;;;;;;5058653;28;20053;-56
2023/01/28 09:55:16;;;;;;;11.02;6.20;;;3.10;99.90;;;;;;5080666;28;20186;-56
2023/01/28 09:57:49;;;;;;;14.18;8.07;;;3.10;99.90;;;;;;5081768;28;20036;-57
2023/01/28 10:00:18;;;;;;;12.10;6.95;;;2.90;99.90;;;;;;5081338;28;20151;-57
2023/01/28 10:02:59;;;;;;;11.18;7.18;;;3.00;99.90;;;;;;5081540;28;20060;-57
2023/01/28 10:05:55;;;;;;;11.77;6.72;;;3.00;99.90;;;;;;5081834;28;20093;-56
2023/01/28 10:08:30;;;;;;;12.25;6.43;;;3.10;99.90;;;;;;5081580;28;20423;-57
2023/01/28 10:11:07;;;;;;;10.73;6.45;;;3.10;99.90;;;;;;5081222;28;20055;-56
2023/01/28 10:14:02;;;;;;;12.70;6.95;;;3.20;99.90;;;;;;5081755;28;20095;-56
2023/01/28 10:16:35;;;;;;;11.93;6.68;;;3.20;99.90;;;;;;5081383;28;20045;-56
2023/01/28 10:19:14;;;;;;;11.13;6.93;;;3.20;99.90;;;;;;5081145;28;20040;-56
2023/01/28 10:21:46;;;;;;;11.05;6.40;;;3.30;99.90;;;;;;5081158;28;20416;-57
2023/01/28 10:24:23;;;;;;;10.30;6.30;;;3.30;99.90;;;;;;5081054;28;20079;-57
2023/01/28 10:26:48;;;;;;;10.55;6.03;;;3.40;99.90;;;;;;5081699;28;20075;-57
2023/01/28 10:29:18;;;;;;;9.05;5.90;;;3.50;99.90;;;;;;5081178;28;20044;-56
2023/01/28 10:32:03;;;;;;;13.52;5.93;;;3.30;99.90;;;;;;5081247;28;20037;-56
2023/01/28 10:34:29;;;;;;;11.52;5.90;;;3.50;99.90;;;;;;5080955;28;20066;-56
2023/01/28 10:36:56;;;;;;;9.70;5.70;;;3.30;99.90;;;;;;5080663;28;20131;-56
2023/01/28 10:39:25;;;;;;;9.00;5.38;;;3.50;99.90;;;;;;5081162;28;20037;-57
2023/01/28 10:41:51;;;;;;;10.80;5.75;;;3.40;99.90;;;;;;5080559;28;20040;-56
2023/01/28 10:44:37;;;;;;;10.95;6.18;;;3.70;99.90;;;;;;5077824;28;20041;-56
2023/01/28 10:47:14;;;;;;;9.80;6.10;;;3.70;99.90;;;;;;5080612;28;20123;-56
2023/01/28 10:49:48;;;;;;;10.15;6.15;;;3.80;99.90;;;;;;5062688;28;20037;-57
2023/01/28 10:52:15;;;;;;;10.32;6.00;;;3.80;99.90;;;;;;5046227;28;20115;-57
2023/01/28 10:54:40;;;;;;;10.70;5.78;;;3.90;99.90;;;;;;5065167;28;20104;-57
2023/01/28 10:57:15;;;;;;;9.63;5.78;;;3.80;99.90;;;;;;5043085;28;20057;-57
2023/01/28 10:59:41;;;;;;;13.27;6.45;;;4.00;99.90;;;;;;5060569;28;20068;-57
2023/01/28 11:02:23;;;;;;;9.55;5.80;;;3.80;99.90;;;;;;5060120;28;20060;-56
2023/01/28 11:05:15;;;;;;;12.57;6.45;;;3.90;99.90;;;;;;5060667;28;20128;-57
2023/01/28 11:07:42;;;;;;;10.65;6.10;;;4.00;99.90;;;;;;5060433;28;20045;-56
2023/01/28 11:10:31;;;;;;;11.00;6.18;;;3.90;99.90;;;;;;5060759;28;20048;-57
2023/01/28 11:12:58;;;;;;;10.10;5.75;;;3.90;99.90;;;;;;5060119;28;20041;-57
2023/01/28 11:15:23;;;;;;;11.23;6.15;;;3.90;99.90;;;;;;5060253;28;20033;-57
2023/01/28 11:18:02;;;;;;;10.30;5.47;;;3.90;99.90;;;;;;5060132;28;20129;-56
2023/01/28 11:20:37;;;;;;;11.00;6.13;;;4.10;99.90;;;;;;5060081;28;20144;-56
2023/01/28 11:23:03;;;;;;;12.27;6.65;;;4.00;99.90;;;;;;5042186;28;20041;-56
2023/01/28 11:25:34;;;;;;;10.50;6.30;;;3.90;99.90;;;;;;5059821;28;20108;-55
2023/01/28 11:28:06;;;;;;;11.70;6.07;;;4.00;99.90;;;;;;5059939;28;20092;-57
2023/01/28 11:30:35;;;;;;;10.95;6.10;;;4.10;99.90;;;;;;5060168;28;20052;-56
2023/01/28 11:33:10;;;;;;;10.95;6.22;;;4.00;99.90;;;;;;5059785;28;20041;-56
2023/01/28 11:35:35;;;;;;;12.07;6.95;;;4.00;99.90;;;;;;5060336;28;20045;-56
2023/01/28 11:38:01;;;;;;;11.02;6.07;;;4.10;99.90;;;;;;5059629;28;20052;-57
2023/01/28 11:40:28;;;;;;;12.00;6.60;;;4.10;99.90;;;;;;5059684;28;20516;-56
2023/01/28 11:42:58;;;;;;;11.20;6.57;;;4.10;99.90;;;;;;5059451;28;20105;-57
2023/01/28 11:45:51;;;;;;;12.52;6.68;;;4.40;99.90;;;;;;5059676;28;20053;-56
2023/01/28 11:48:47;;;;;;;11.80;6.75;;;4.10;99.90;;;;;;5010941;28;20056;-57
2023/01/28 11:51:44;;;;;;;11.88;7.03;;;4.00;99.90;;;;;;5059372;28;20071;-55
2023/01/28 11:54:40;;;;;;;11.65;6.53;;;4.00;99.90;;;;;;5070580;28;20578;-57
2023/01/28 11:57:22;;;;;;;10.68;6.25;;;4.10;99.90;;;;;;5079706;28;20044;-56
2023/01/28 12:00:08;;;;;;;10.95;6.45;;;4.10;99.90;;;;;;5079383;28;20056;-58
2023/01/28 12:02:49;;;;;;;12.55;6.97;;;4.10;99.90;;;;;;5079160;28;20074;-56
2023/01/28 12:05:41;;;;;;;14.43;6.93;;;3.90;99.90;;;;;;5079727;28;20050;-55
2023/01/28 12:08:29;;;;;;;11.57;6.55;;;3.80;99.90;;;;;;5079100;28;20400;-56
2023/01/28 12:11:00;;;;;;;11.80;6.45;;;3.80;99.90;;;;;;5078873;28;20116;-56
2023/01/28 12:13:41;;;;;;;11.52;6.25;;;3.90;99.90;;;;;;5079386;28;20100;-57
2023/01/28 12:16:44;;;;;;;12.55;6.65;;;4.10;99.90;;;;;;5078708;28;20052;-56
2023/01/28 12:19:19;;;;;;;11.50;6.90;;;4.20;99.90;;;;;;5078274;28;20056;-56
2023/01/28 12:22:10;;;;;;;12.02;7.40;;;4.30;99.90;;;;;;5079054;28;20438;-56
2023/01/28 12:24:51;;;;;;;16.65;8.30;;;4.30;99.90;;;;;;5078914;28;20088;-56
2023/01/28 12:27:32;;;;;;;12.93;7.65;;;4.30;99.90;;;;;;5078986;28;20049;-56
2023/01/28 12:30:26;;;;;;;11.20;6.78;;;4.40;99.90;;;;;;5078801;28;20052;-57
2023/01/28 12:33:13;;;;;;;13.25;6.95;;;4.50;99.90;;;;;;5078830;28;20040;-56
2023/01/28 12:35:52;;;;;;;11.95;6.28;;;4.10;99.90;;;;;;5079005;28;20101;-56
2023/01/28 12:38:34;;;;;;;10.80;6.35;;;4.30;99.90;;;;;;5060755;28;20048;-57
2023/01/28 12:41:03;;;;;;;;;;;4.40;99.90;;;;;;5079099;28;20048;-57
2023/01/28 12:43:44;;;;;;;12.45;6.85;;;4.50;99.90;;;;;;5078996;28;19947;-57
2023/01/28 12:46:35;;;;;;;12.55;5.72;;;4.50;99.90;;;;;;5078457;28;20127;-56
2023/01/28 12:49:08;;;;;;;11.88;6.00;;;4.60;99.90;;;;;;5078240;28;20618;-57
2023/01/28 12:51:49;;;;;;;10.50;5.50;;;4.70;99.90;;;;;;5078808;28;20048;-56
2023/01/28 12:54:25;;;;;;;10.15;5.63;;;4.60;99.90;;;;;;5055906;28;20100;-57
2023/01/28 12:56:53;;;;;;;10.07;5.57;;;4.70;99.90;;;;;;5079208;28;20075;-56
2023/01/28 12:59:28;;;;;;;10.15;5.60;;;4.70;99.90;;;;;;5078442;28;20044;-56
2023/01/28 13:02:12;;;;;;;11.63;5.72;;;4.80;99.90;;;;;;5060620;28;20040;-57
2023/01/28 13:04:54;;;;;;;11.18;5.05;;;4.80;99.90;;;;;;5077284;28;20044;-56
2023/01/28 13:07:32;;;;;;;9.73;4.90;;;4.80;99.90;;;;;;5078452;28;20049;-56
2023/01/28 13:10:16;;;;;;;9.63;5.00;;;4.80;99.90;;;;;;5078890;28;20092;-57
2023/01/28 13:12:43;;;;;;;9.40;4.90;;;5.00;99.90;;;;;;5078172;28;20079;-56
2023/01/28 13:15:15;;;;;;;11.85;5.72;;;5.00;99.90;;;;;;5078286;28;20040;-56
2023/01/28 13:18:00;;;;;;;9.43;5.15;;;4.90;99.90;;;;;;5078212;28;20045;-56
2023/01/28 13:20:47;;;;;;;9.63;5.47;;;5.00;99.90;;;;;;5078295;28;20048;-56
2023/01/28 13:23:40;;;;;;;12.00;5.10;;;4.90;99.90;;;;;;5077028;28;20444;-53
2023/01/28 13:26:19;;;;;;;10.60;5.20;;;4.70;99.90;;;;;;5098795;28;20082;-56
2023/01/28 13:28:50;;;;;;;10.68;5.72;;;4.90;99.90;;;;;;5065463;28;20047;-56
2023/01/28 13:31:18;;;;;;;9.73;5.55;;;4.70;99.90;;;;;;5084691;28;20055;-56
2023/01/28 13:34:00;;;;;;;10.27;5.50;;;4.80;99.90;;;;;;5102198;28;20039;-56
2023/01/28 13:36:35;;;;;;;10.20;5.60;;;4.90;99.90;;;;;;5102173;28;20658;-56